AirNav   ProFlight Series 2 Aviation Headset
 
 411 users online  

04PN Strawbridge & Clothier Exton Heliport
Exton, Pennsylvania, USA

GOING TO EXTON?


FAA INFORMATION EFFECTIVE 18 JUNE 2020

Location

FAA Identifier: 04PN
Lat/Long: 40-01-50.3830N 075-37-48.7560W
40-01.839717N 075-37.812600W
40.0306619,-75.6302100
(estimated)
Elevation: 320 ft. / 98 m (estimated)
Variation: 11W (1985)
Time zone: UTC -4 (UTC -5 during Standard Time)
Zip code: 19341

Heliport Operations

Heliport use: Private use. Permission required prior to landing
Activation date: 04/1979
Control tower: no
ARTCC: NEW YORK CENTER
FSS: WILLIAMSPORT FLIGHT SERVICE STATION
Attendance: UNATNDD
Wind indicator: no
Segmented circle: no

Heliport Communications

WX AWOS-3T at OQN (3 nm SE): 121.4 ((610) 692-6190)
WX AWOS-3 at MQS (11 nm W): 126.25 (610-384-6132)
WX ASOS at PTW (13 nm N): 119.425 (610-495-0823)
WX AWOS-3 at LOM (18 nm E): 118.925 (215-646-1068)

Nearby radio navigation aids

VOR radial/distance  VOR name  Freq  Var
MXEr024/7.0MODENA VORTAC113.2009W
PTWr205/11.9POTTSTOWN VORTAC116.5009W
DQOr007/21.2DUPONT VORTAC114.0010W
OODr338/28.1WOODSTOWN VORTAC112.8010W
LRPr109/30.8LANCASTER VOR/DME117.3009W
ETXr185/33.1EAST TEXAS VOR/DME110.2009W
ARDr258/35.7YARDLEY VOR/DME108.2010W

 
NDB name  Hdg/Dist  Freq  Var  ID
AMBLER262/16.827512WING .. -. --.

Heliport Services

Runway Information

Helipad H1

Dimensions: 70 x 70 ft. / 21 x 21 m
Surface: concrete, in fair condition
ROOFTOP.
Latitude: 40-01.839717N
Longitude: 075-37.812600W
Elevation: 320.0 ft.
Traffic pattern: leftleft
Markings: none, in fair condition

Heliport Ownership and Management from official FAA records

Ownership: Privately-owned
Owner: STRAWBRIDGE & CLOTHIER
RTES 100 & 30
EXTON, PA 19341
Manager: RONALD B. AVELLINO
801 MARKET ST
PHILADELPHIA, PA 19105
Phone 215-629-6501
VICE PRESIDENT STRAWBRIDGE & CLOTHIER.

Additional Remarks

FOR CD CTC PHILADELPHIA APCH AT 800-354-9884.

Instrument Procedures

There are no published instrument procedures at 04PN.

Some nearby airports with instrument procedures:

KOQN - Brandywine Regional Airport (3 nm SE)
KMQS - Chester County G O Carlson Airport (11 nm W)
KPTW - Heritage Field Airport (13 nm N)
N57 - New Garden Airport (14 nm SW)
N10 - Perkiomen Valley Airport (14 nm NE)
N47 - Pottstown Municipal Airport (14 nm N)
KLOM - Wings Field Airport (18 nm E)
 
Loc | Ops | Rwys | IFR | FBO | Links
Com | Nav | Svcs | Stats | Notes
Area around 04PN (Strawbridge & Clothier Exton Heliport)
 
Road maps at: MapQuest Bing Google
 
Aerial photo
No photo
 
Sectional chart

 
Airport distance calculator
Flying to Strawbridge & Clothier Exton Heliport? Find the distance to fly.

From to 04PN

Sunrise and sunset
Times for 05-Jul-2020
 Local
(UTC-4)
 Zulu
(UTC)
Morning civil twilight05:0809:08
Sunrise05:4109:41
Sunset20:3300:33
Evening civil twilight21:0601:06

Current date and time
Zulu (UTC)  05-Jul-2020 05:15:27
Local (UTC-4)  05-Jul-2020 01:15:27
 
METAR
KOQN 
3nm SE 
050455Z AUTO 00000KT 7SM CLR 23/21 A2996 RMK AO2
KMQS 
11nm W 
050455Z AUTO 00000KT 4SM BR CLR 22/21 A2998 RMK AO2
KPTW 
13nm N 
050454Z AUTO 00000KT 7SM FEW070 23/21 A2996 RMK AO2 SLP141 T02280206 403060194
KLOM 
18nm E 
050455Z AUTO 20004KT 10SM CLR 23/21 A2994 RMK AO2 T02350209
TAF
KPHL 
21nm SE 
050241Z 0503/0606 19006KT P6SM SCT150 FM050400 VRB03KT P6SM SCT080 FM051400 27005KT P6SM FEW080 FEW150 FM052000 24006KT P6SM SCT080
KILG 
22nm S 
041720Z 0418/0518 11004KT P6SM SCT030 BKN045 FM042100 15005KT P6SM VCTS SCT045CB BKN080 FM050000 18003KT P6SM SCT080 FM050400 VRB02KT 6SM BR SCT060 FM051500 30005KT P6SM SCT070
NOTAMs
Click for the latest NOTAMs
NOTAMs are issued by the DoD/FAA and will open in a separate window not controlled by AirNav.

 

 
 

Would you like to see your business listed on this page?

 If your business provides an interesting product or service to pilots, flight crews, aircraft, or users of the Strawbridge & Clothier Exton Heliport, you should consider listing it here.  To start the listing process, click on the button below
 
Add a business
 

Other Pages about Strawbridge & Clothier Exton Heliport

Update a link
 
Copyright © AirNav, LLC. All rights reserved. Privacy Policy  Contact